logo
Rechercher aéroport 
image banner adimage banner adimage banner ad
image banner ad

OPWN - Wana Airport

Situé à Waana, Pakistan

ICAO - OPWN, IATA - WAF

Données fournies par Airmate  

Information générale

Coordonnées: N32°18'17" E69°34'13"
Élévation : 4550 feet MSL.
Variation magnétique : 3° East
Voir autres Aéroports à Federally Administered Tribal Areas

Données opérationnelles

Special qualification required
Heure actuelle UTC:
Heure actuelle locale:
Météo à : - ( 0 km )
METAR: ROTM 222256Z COR 22013G21KT 9999 FEW010 BKN050 OVC110 27/27 A2983 RMK RAE25 SLP102 WND WRNG P0000 T02650265
Voir NOTAMs / SUP AIP / TFR affectant cet aéroport [VIEW]
Fréquences de communication: [VIEW]

Pistes:

Coordonnées de l'aéroport

Adresse: Waana Pakistan

Vue satellite de OPWN